createdAt,value
2019-02-27T00:00:56.292Z,67.09
2019-02-27T00:01:56.286Z,67.30
2019-02-27T00:02:56.705Z,66.96
2019-02-27T00:03:56.269Z,66.64
2019-02-27T00:04:56.252Z,66.26
2019-02-27T00:05:56.235Z,66.23
2019-02-27T00:06:56.224Z,66.06
2019-02-27T00:07:56.249Z,65.95
2019-02-27T00:08:57.888Z,66.26
2019-02-27T00:09:56.200Z,65.95
2019-02-27T00:10:56.196Z,65.33
2019-02-27T00:11:56.185Z,65.23
2019-02-27T00:12:56.170Z,65.23
2019-02-27T00:13:58.000Z,64.61
2019-02-27T00:14:56.161Z,64.61
2019-02-27T00:15:56.154Z,64.30
2019-02-27T00:16:56.123Z,63.99
2019-02-27T00:17:56.148Z,63.68
2019-02-27T00:18:58.595Z,63.68
2019-02-27T00:19:56.105Z,63.57
2019-02-27T00:20:56.112Z,63.26
2019-02-27T00:21:56.106Z,62.13
2019-02-27T00:22:56.083Z,62.82
2019-02-27T00:23:56.871Z,63.03
2019-02-27T00:24:56.061Z,62.23
2019-02-27T00:25:56.033Z,62.44
2019-02-27T00:26:56.033Z,61.99
2019-02-27T00:27:56.043Z,62.23
2019-02-27T00:28:56.704Z,62.23
2019-02-27T00:29:55.989Z,62.23
2019-02-27T00:30:55.972Z,62.75
2019-02-27T00:31:55.982Z,62.95
2019-02-27T00:32:55.973Z,62.34
2019-02-27T00:33:59.594Z,63.16
2019-02-27T00:34:55.935Z,62.54
2019-02-27T00:35:55.918Z,62.23
2019-02-27T00:36:55.913Z,62.44
2019-02-27T00:37:55.902Z,62.34
2019-02-27T00:38:57.918Z,62.54
2019-02-27T00:39:55.890Z,62.34
2019-02-27T00:40:55.866Z,61.82
2019-02-27T00:41:55.876Z,62.02
2019-02-27T00:42:55.844Z,62.02
2019-02-27T00:43:55.854Z,61.92
2019-02-27T00:44:55.855Z,62.16
2019-02-27T00:45:55.830Z,62.16
2019-02-27T00:46:55.802Z,62.75
2019-02-27T00:47:55.794Z,62.13
2019-02-27T00:48:59.032Z,63.16
2019-02-27T00:49:55.772Z,63.50
2019-02-27T00:50:55.802Z,62.77
2019-02-27T00:51:55.748Z,62.46
2019-02-27T00:52:55.741Z,62.54
2019-02-27T00:53:55.907Z,62.26
2019-02-27T00:54:55.737Z,62.46
2019-02-27T00:55:55.712Z,61.64
2019-02-27T00:56:55.693Z,61.64
2019-02-27T00:57:55.685Z,61.64
2019-02-27T00:58:59.974Z,61.64
2019-02-27T00:59:56.696Z,61.67
2019-02-27T01:00:55.652Z,62.05
2019-02-27T01:01:55.657Z,62.16
2019-02-27T01:02:55.676Z,62.26
2019-02-27T01:03:59.288Z,62.98
2019-02-27T01:04:56.628Z,62.98
2019-02-27T01:05:55.620Z,63.29
2019-02-27T01:06:55.591Z,63.71
2019-02-27T01:07:55.572Z,64.32
2019-02-27T01:08:55.584Z,64.46
2019-02-27T01:09:55.556Z,64.32
2019-02-27T01:10:55.540Z,64.15
2019-02-27T01:11:55.577Z,65.36
2019-02-27T01:12:57.925Z,65.08
2019-02-27T01:13:55.516Z,65.70
2019-02-27T01:14:55.514Z,66.09
2019-02-27T01:15:55.488Z,65.50
2019-02-27T01:16:55.482Z,66.12
2019-02-27T01:17:57.456Z,65.81
2019-02-27T01:18:55.461Z,66.74
2019-02-27T01:19:55.461Z,67.05
2019-02-27T01:20:55.445Z,67.25
2019-02-27T01:21:55.462Z,68.19
2019-02-27T01:22:55.419Z,67.88
2019-02-27T01:23:55.443Z,67.57
2019-02-27T01:24:55.405Z,67.64
2019-02-27T01:25:56.914Z,67.57
2019-02-27T01:26:55.402Z,68.29
2019-02-27T01:27:55.365Z,68.40
2019-02-27T01:28:55.358Z,68.15
2019-02-27T01:29:55.366Z,68.57
2019-02-27T01:30:55.355Z,68.15
2019-02-27T01:31:57.619Z,68.77
2019-02-27T01:32:55.308Z,68.57
2019-02-27T01:33:55.321Z,68.15
2019-02-27T01:34:55.315Z,67.22
2019-02-27T01:35:55.301Z,67.54
2019-02-27T01:36:58.031Z,67.54
2019-02-27T01:37:55.265Z,67.64
2019-02-27T01:38:55.243Z,67.43
2019-02-27T01:39:55.250Z,67.33
2019-02-27T01:40:55.241Z,67.50
2019-02-27T01:41:57.854Z,67.02
2019-02-27T01:42:55.221Z,66.50
2019-02-27T01:43:55.208Z,66.78
2019-02-27T01:44:55.210Z,65.64
2019-02-27T01:45:55.178Z,66.16
2019-02-27T01:46:55.168Z,66.29
2019-02-27T01:47:55.164Z,66.36
2019-02-27T01:48:55.162Z,65.85
2019-02-27T01:49:55.142Z,66.06
2019-02-27T01:50:55.824Z,66.06
2019-02-27T01:51:55.119Z,65.44
2019-02-27T01:52:55.104Z,65.33
2019-02-27T01:53:55.101Z,65.33
2019-02-27T01:54:55.085Z,65.44
2019-02-27T01:55:56.390Z,65.23
2019-02-27T01:56:55.059Z,65.67
2019-02-27T01:57:55.046Z,65.26
2019-02-27T01:58:55.047Z,65.44
2019-02-27T01:59:55.024Z,65.75
2019-02-27T02:00:56.253Z,65.75
2019-02-27T02:01:55.036Z,66.09
2019-02-27T02:02:54.993Z,66.39
2019-02-27T02:03:54.979Z,66.09
2019-02-27T02:04:54.969Z,66.39
2019-02-27T02:05:58.820Z,66.81
2019-02-27T02:06:54.991Z,66.71
2019-02-27T02:07:54.955Z,67.22
2019-02-27T02:08:54.960Z,67.12
2019-02-27T02:09:55.761Z,67.61
2019-02-27T02:10:54.913Z,67.33
2019-02-27T02:11:54.903Z,67.12
2019-02-27T02:12:54.921Z,67.40
2019-02-27T02:13:54.881Z,67.85
2019-02-27T02:14:54.996Z,67.54
2019-02-27T02:15:54.867Z,68.36
2019-02-27T02:16:54.853Z,68.98
2019-02-27T02:17:54.854Z,68.46
2019-02-27T02:18:54.828Z,68.88
2019-02-27T02:19:54.816Z,68.74
2019-02-27T02:20:54.850Z,68.85
2019-02-27T02:21:54.793Z,69.26
2019-02-27T02:22:54.813Z,69.26
2019-02-27T02:23:54.776Z,69.26
2019-02-27T02:24:54.872Z,69.26
2019-02-27T02:25:54.760Z,69.67
2019-02-27T02:26:54.746Z,69.47
2019-02-27T02:27:54.771Z,69.47
2019-02-27T02:28:54.738Z,69.78
2019-02-27T02:29:54.775Z,69.98
2019-02-27T02:30:54.698Z,69.98
2019-02-27T02:31:54.686Z,70.81
2019-02-27T02:32:54.698Z,69.78
2019-02-27T02:33:54.699Z,69.47
2019-02-27T02:34:54.652Z,69.67
2019-02-27T02:35:54.650Z,70.19
2019-02-27T02:37:01.232Z,69.78
2019-02-27T02:37:55.637Z,69.57
2019-02-27T02:38:54.629Z,69.88
2019-02-27T02:39:55.360Z,69.98
2019-02-27T02:40:54.595Z,69.57
2019-02-27T02:41:54.588Z,69.78
2019-02-27T02:42:54.577Z,69.57
2019-02-27T02:43:54.602Z,69.88
2019-02-27T02:44:57.719Z,69.57
2019-02-27T02:45:54.541Z,69.67
2019-02-27T02:46:54.526Z,69.47
2019-02-27T02:47:55.817Z,69.67
2019-02-27T02:48:54.502Z,69.88
2019-02-27T02:49:54.534Z,69.47
2019-02-27T02:50:55.104Z,69.88
2019-02-27T02:51:54.509Z,69.47
2019-02-27T02:52:54.467Z,69.37
2019-02-27T02:54:00.415Z,69.47
2019-02-27T02:54:55.501Z,69.57
2019-02-27T02:55:54.437Z,69.57
2019-02-27T02:57:00.217Z,69.57
2019-02-27T02:57:55.444Z,70.92
2019-02-27T02:58:54.401Z,70.29
2019-02-27T02:59:59.427Z,69.88
2019-02-27T03:00:55.371Z,69.57
2019-02-27T03:01:54.382Z,69.67
2019-02-27T03:02:57.603Z,70.09
2019-02-27T03:03:55.358Z,70.61
2019-02-27T03:04:54.373Z,70.40
2019-02-27T03:05:58.486Z,70.09
2019-02-27T03:06:55.315Z,70.01
2019-02-27T03:07:54.316Z,70.43
2019-02-27T03:08:55.428Z,69.57
2019-02-27T03:09:54.288Z,69.81
2019-02-27T03:10:54.297Z,70.12
2019-02-27T03:11:55.635Z,70.19
2019-02-27T03:12:54.257Z,70.29
2019-02-27T03:13:54.271Z,69.81
2019-02-27T03:14:54.543Z,70.43
2019-02-27T03:15:54.261Z,69.81
2019-02-27T03:16:54.247Z,69.92
2019-02-27T03:17:55.158Z,70.22
2019-02-27T03:18:54.187Z,70.09
2019-02-27T03:19:54.187Z,69.92
2019-02-27T03:20:54.167Z,69.60
2019-02-27T03:21:54.184Z,69.60
2019-02-27T03:22:54.172Z,69.26
2019-02-27T03:23:54.138Z,69.09
2019-02-27T03:24:54.126Z,69.06
2019-02-27T03:25:54.124Z,69.16
2019-02-27T03:26:54.132Z,69.16
2019-02-27T03:27:54.088Z,69.37
2019-02-27T03:28:54.094Z,68.54
2019-02-27T03:29:54.074Z,69.37
2019-02-27T03:30:54.102Z,69.47
2019-02-27T03:32:00.071Z,69.26
2019-02-27T03:32:55.051Z,69.29
2019-02-27T03:33:54.042Z,68.88
2019-02-27T03:34:54.027Z,68.54
2019-02-27T03:35:54.043Z,68.67
2019-02-27T03:36:54.015Z,68.95
2019-02-27T03:37:53.997Z,68.95
2019-02-27T03:38:55.899Z,68.98
2019-02-27T03:39:54.978Z,68.95
2019-02-27T03:40:53.985Z,68.74
2019-02-27T03:41:58.492Z,68.74
2019-02-27T03:42:54.980Z,68.54
2019-02-27T03:43:53.928Z,68.98
2019-02-27T03:44:56.359Z,68.57
2019-02-27T03:45:53.896Z,68.77
2019-02-27T03:46:53.906Z,68.98
2019-02-27T03:47:53.883Z,68.88
2019-02-27T03:48:53.889Z,68.98
2019-02-27T03:49:53.869Z,68.57
2019-02-27T03:50:53.865Z,68.98
2019-02-27T03:51:59.947Z,68.98
2019-02-27T03:52:54.838Z,68.88
2019-02-27T03:53:53.868Z,68.88
2019-02-27T03:54:56.956Z,68.67
2019-02-27T03:55:53.801Z,68.77
2019-02-27T03:56:53.790Z,69.09
2019-02-27T03:57:55.278Z,68.67
2019-02-27T03:58:53.814Z,68.88
2019-02-27T03:59:53.763Z,68.98
2019-02-27T04:00:54.218Z,68.88
2019-02-27T04:01:53.751Z,68.77
2019-02-27T04:02:53.777Z,68.77
2019-02-27T04:03:55.326Z,68.98
2019-02-27T04:04:53.733Z,68.88
2019-02-27T04:05:53.706Z,68.36
2019-02-27T04:06:56.303Z,68.46
2019-02-27T04:07:53.681Z,68.15
2019-02-27T04:08:53.655Z,67.61
2019-02-27T04:09:55.384Z,67.95
2019-02-27T04:10:53.679Z,67.91
2019-02-27T04:11:53.630Z,68.26
2019-02-27T04:12:53.618Z,68.23
2019-02-27T04:13:53.615Z,67.30
2019-02-27T04:14:53.669Z,67.85
2019-02-27T04:15:54.437Z,67.54
2019-02-27T04:16:53.637Z,67.33
2019-02-27T04:17:53.561Z,67.74
2019-02-27T04:18:53.552Z,67.85
2019-02-27T04:19:53.562Z,67.74
2019-02-27T04:20:53.534Z,67.22
2019-02-27T04:21:53.537Z,67.85
2019-02-27T04:22:53.513Z,67.64
2019-02-27T04:23:53.513Z,68.05
2019-02-27T04:24:56.610Z,67.85
2019-02-27T04:25:53.505Z,67.95
2019-02-27T04:26:53.491Z,67.98
2019-02-27T04:27:55.599Z,67.77
2019-02-27T04:28:53.452Z,67.57
2019-02-27T04:29:53.433Z,67.88
2019-02-27T04:30:53.475Z,67.36
2019-02-27T04:31:53.421Z,67.46
2019-02-27T04:32:53.415Z,67.46
2019-02-27T04:33:53.400Z,67.67
2019-02-27T04:34:53.393Z,67.05
2019-02-27T04:35:53.371Z,67.98
2019-02-27T04:36:53.395Z,67.25
2019-02-27T04:37:54.383Z,67.36
2019-02-27T04:38:53.351Z,67.36
2019-02-27T04:39:53.345Z,67.15
2019-02-27T04:40:53.392Z,67.15
2019-02-27T04:41:53.308Z,67.15
2019-02-27T04:42:53.324Z,67.46
2019-02-27T04:43:53.288Z,66.84
2019-02-27T04:44:53.303Z,66.94
2019-02-27T04:45:53.278Z,66.84
2019-02-27T04:46:55.103Z,66.63
2019-02-27T04:47:53.246Z,66.32
2019-02-27T04:48:53.262Z,66.74
2019-02-27T04:49:53.220Z,66.32
2019-02-27T04:50:53.233Z,67.05
2019-02-27T04:51:53.204Z,66.97
2019-02-27T04:52:53.200Z,67.08
2019-02-27T04:53:53.240Z,66.35
2019-02-27T04:54:53.181Z,66.74
2019-02-27T04:55:53.164Z,66.87
2019-02-27T04:56:55.040Z,66.35
2019-02-27T04:57:53.237Z,66.05
2019-02-27T04:58:53.191Z,66.05
2019-02-27T04:59:53.233Z,65.94
2019-02-27T05:00:53.105Z,65.84
2019-02-27T05:01:53.109Z,65.63
2019-02-27T05:02:53.426Z,65.63
2019-02-27T05:03:53.124Z,66.25
2019-02-27T05:04:53.068Z,65.32
2019-02-27T05:05:53.086Z,65.53
2019-02-27T05:06:53.141Z,65.94
2019-02-27T05:07:54.319Z,65.11
2019-02-27T05:08:53.054Z,65.53
2019-02-27T05:09:53.022Z,65.84
2019-02-27T05:10:52.999Z,65.53
2019-02-27T05:11:53.460Z,65.42
2019-02-27T05:12:53.114Z,65.39
2019-02-27T05:13:54.273Z,65.73
2019-02-27T05:14:52.971Z,65.53
2019-02-27T05:15:53.020Z,65.39
2019-02-27T05:16:53.007Z,65.53
2019-02-27T05:17:55.484Z,65.32
2019-02-27T05:18:52.937Z,65.73
2019-02-27T05:19:52.924Z,65.42
2019-02-27T05:20:52.915Z,65.63
2019-02-27T05:21:53.138Z,65.42
2019-02-27T05:22:52.929Z,65.53
2019-02-27T05:23:52.872Z,65.53
2019-02-27T05:24:52.867Z,65.01
2019-02-27T05:25:52.874Z,65.01
2019-02-27T05:26:52.839Z,65.32
2019-02-27T05:27:52.825Z,65.22
2019-02-27T05:28:52.886Z,65.53
2019-02-27T05:29:52.799Z,65.32
2019-02-27T05:30:52.798Z,65.63
2019-02-27T05:31:53.257Z,65.25
2019-02-27T05:32:52.774Z,65.66
2019-02-27T05:33:52.823Z,65.14
2019-02-27T05:34:52.763Z,65.53
2019-02-27T05:35:57.019Z,65.77
2019-02-27T05:36:53.743Z,65.35
2019-02-27T05:37:52.748Z,65.35
2019-02-27T05:38:52.709Z,65.35
2019-02-27T05:39:52.717Z,65.87
2019-02-27T05:40:52.687Z,66.08
2019-02-27T05:41:52.695Z,66.08
2019-02-27T05:42:52.673Z,66.31
2019-02-27T05:43:52.679Z,66.11
2019-02-27T05:44:55.599Z,66.11
2019-02-27T05:45:52.685Z,66.28
2019-02-27T05:46:52.624Z,66.31
2019-02-27T05:47:52.623Z,65.87
2019-02-27T05:48:53.357Z,65.77
2019-02-27T05:49:52.599Z,66.41
2019-02-27T05:50:52.633Z,66.31
2019-02-27T05:51:52.641Z,66.49
2019-02-27T05:52:52.582Z,66.31
2019-02-27T05:53:52.545Z,66.31
2019-02-27T05:54:52.559Z,65.87
2019-02-27T05:55:52.550Z,65.97
2019-02-27T05:56:52.575Z,66.00
2019-02-27T05:57:52.535Z,66.21
2019-02-27T05:58:56.115Z,66.11
2019-02-27T05:59:52.483Z,65.90
2019-02-27T06:00:52.490Z,65.77
2019-02-27T06:01:52.478Z,65.45
2019-02-27T06:02:52.488Z,65.87
2019-02-27T06:03:53.007Z,65.35
2019-02-27T06:04:52.437Z,65.45
2019-02-27T06:05:52.444Z,64.83
2019-02-27T06:06:52.447Z,64.73
2019-02-27T06:07:52.440Z,64.21
2019-02-27T06:08:52.406Z,64.21
2019-02-27T06:09:52.437Z,64.73
2019-02-27T06:10:56.037Z,64.31
2019-02-27T06:11:52.363Z,64.11
2019-02-27T06:12:52.377Z,63.90
2019-02-27T06:13:52.372Z,63.48
2019-02-27T06:14:54.809Z,63.76
2019-02-27T06:15:52.336Z,63.35
2019-02-27T06:16:52.334Z,62.84
2019-02-27T06:17:52.323Z,62.84
2019-02-27T06:18:56.062Z,62.11
2019-02-27T06:19:52.286Z,62.94
2019-02-27T06:20:52.270Z,62.32
2019-02-27T06:21:56.068Z,61.69
2019-02-27T06:22:52.243Z,62.42
2019-02-27T06:23:52.232Z,61.69
2019-02-27T06:24:52.263Z,61.59
2019-02-27T06:25:52.215Z,61.59
2019-02-27T06:26:52.211Z,60.97
2019-02-27T06:27:52.204Z,60.77
2019-02-27T06:28:52.181Z,60.74
2019-02-27T06:29:52.173Z,60.97
2019-02-27T06:30:52.199Z,60.84
2019-02-27T06:31:52.156Z,61.25
2019-02-27T06:32:52.146Z,60.32
2019-02-27T06:33:52.143Z,60.35
2019-02-27T06:34:52.201Z,60.32
2019-02-27T06:35:52.147Z,59.91
2019-02-27T06:36:52.116Z,60.32
2019-02-27T06:37:52.115Z,60.53
2019-02-27T06:38:52.087Z,60.22
2019-02-27T06:39:54.101Z,60.63
2019-02-27T06:40:52.057Z,60.32
2019-02-27T06:41:52.110Z,60.32
2019-02-27T06:42:53.887Z,60.53
2019-02-27T06:43:52.032Z,60.01
2019-02-27T06:44:52.029Z,60.46
2019-02-27T06:45:54.150Z,60.32
2019-02-27T06:46:53.914Z,59.29
2019-02-27T06:47:52.016Z,59.70
2019-02-27T06:48:51.975Z,59.70
2019-02-27T06:49:52.575Z,59.70
2019-02-27T06:50:51.952Z,59.70
2019-02-27T06:51:51.982Z,59.39
2019-02-27T06:52:51.934Z,59.50
2019-02-27T06:53:51.937Z,59.05
2019-02-27T06:54:52.845Z,59.08
2019-02-27T06:55:51.909Z,58.25
2019-02-27T06:56:51.911Z,58.77
2019-02-27T06:57:51.921Z,58.44
2019-02-27T06:58:51.926Z,58.54
2019-02-27T06:59:51.942Z,58.64
2019-02-27T07:00:51.842Z,57.92
2019-02-27T07:01:51.845Z,58.02
2019-02-27T07:02:55.236Z,58.33
2019-02-27T07:03:51.821Z,58.12
2019-02-27T07:04:51.845Z,57.27
2019-02-27T07:05:51.790Z,57.99
2019-02-27T07:06:55.226Z,57.60
2019-02-27T07:07:51.927Z,56.85
2019-02-27T07:08:51.766Z,56.85
2019-02-27T07:09:51.761Z,58.23
2019-02-27T07:10:51.768Z,57.71
2019-02-27T07:11:51.747Z,57.27
2019-02-27T07:12:54.471Z,58.72
2019-02-27T07:13:51.734Z,56.96
2019-02-27T07:14:51.716Z,56.88
2019-02-27T07:15:51.699Z,57.58
2019-02-27T07:16:51.726Z,56.44
2019-02-27T07:17:51.693Z,56.85
2019-02-27T07:18:51.725Z,56.54
2019-02-27T07:19:51.651Z,55.69
2019-02-27T07:20:51.642Z,55.28
2019-02-27T07:21:51.672Z,56.21
2019-02-27T07:22:51.633Z,55.90
2019-02-27T07:23:51.607Z,55.18
2019-02-27T07:24:51.600Z,56.10
2019-02-27T07:25:51.599Z,55.59
2019-02-27T07:26:51.642Z,55.69
2019-02-27T07:27:51.592Z,54.74
2019-02-27T07:28:51.586Z,54.86
2019-02-27T07:29:51.545Z,55.18
2019-02-27T07:30:51.526Z,55.07
2019-02-27T07:31:52.048Z,55.77
2019-02-27T07:32:51.511Z,54.25
2019-02-27T07:33:51.546Z,54.66
2019-02-27T07:34:51.521Z,54.22
2019-02-27T07:35:51.480Z,54.63
2019-02-27T07:36:51.475Z,54.32
2019-02-27T07:37:51.464Z,54.74
2019-02-27T07:38:51.530Z,55.15
2019-02-27T07:39:51.437Z,53.29
2019-02-27T07:40:51.441Z,54.14
2019-02-27T07:41:51.417Z,54.53
2019-02-27T07:42:51.418Z,54.12
2019-02-27T07:43:51.408Z,53.39
2019-02-27T07:44:51.389Z,54.12
2019-02-27T07:45:51.381Z,53.08
2019-02-27T07:46:51.383Z,53.29
2019-02-27T07:47:51.354Z,53.08
2019-02-27T07:48:51.388Z,52.86
2019-02-27T07:49:51.337Z,53.39
2019-02-27T07:50:51.345Z,53.29
2019-02-27T07:51:51.322Z,52.75
2019-02-27T07:52:52.204Z,52.57
2019-02-27T07:53:53.557Z,53.37
2019-02-27T07:54:51.330Z,52.36
2019-02-27T07:55:51.287Z,52.26
2019-02-27T07:56:51.255Z,51.41
2019-02-27T07:57:51.248Z,53.27
2019-02-27T07:58:51.260Z,52.36
2019-02-27T07:59:51.224Z,52.15
2019-02-27T08:00:51.229Z,52.44
2019-02-27T08:01:51.216Z,52.95
2019-02-27T08:02:51.204Z,52.55
2019-02-27T08:03:51.202Z,52.55
2019-02-27T08:04:51.722Z,52.44
2019-02-27T08:05:51.173Z,51.82
2019-02-27T08:06:51.151Z,52.34
2019-02-27T08:07:51.163Z,51.92
2019-02-27T08:08:51.165Z,50.99
2019-02-27T08:09:51.134Z,51.20
2019-02-27T08:10:51.105Z,51.20
2019-02-27T08:11:51.095Z,51.18
2019-02-27T08:12:55.574Z,51.10
2019-02-27T08:13:52.125Z,50.89
2019-02-27T08:14:51.078Z,50.48
2019-02-27T08:15:51.062Z,51.18
2019-02-27T08:16:51.064Z,50.87
2019-02-27T08:17:51.060Z,50.87
2019-02-27T08:18:51.050Z,50.15
2019-02-27T08:19:51.041Z,50.15
2019-02-27T08:20:54.206Z,50.25
2019-02-27T08:21:50.990Z,50.66
2019-02-27T08:22:50.977Z,50.87
2019-02-27T08:23:51.008Z,49.84
2019-02-27T08:24:50.998Z,50.15
2019-02-27T08:25:50.938Z,49.71
2019-02-27T08:26:50.940Z,50.33
2019-02-27T08:27:50.930Z,49.71
2019-02-27T08:28:50.922Z,49.61
2019-02-27T08:29:50.909Z,49.30
2019-02-27T08:30:50.931Z,49.30
2019-02-27T08:31:50.881Z,48.47
2019-02-27T08:32:50.873Z,50.10
2019-02-27T08:33:50.874Z,49.30
2019-02-27T08:34:50.874Z,49.07
2019-02-27T08:35:51.186Z,48.86
2019-02-27T08:36:50.862Z,49.61
2019-02-27T08:37:50.842Z,48.97
2019-02-27T08:38:50.811Z,48.55
2019-02-27T08:39:50.836Z,48.97
2019-02-27T08:40:50.783Z,47.63
2019-02-27T08:41:50.826Z,47.81
2019-02-27T08:42:50.779Z,49.07
2019-02-27T08:43:50.790Z,47.09
2019-02-27T08:44:50.788Z,46.37
2019-02-27T08:45:50.747Z,47.09
2019-02-27T08:46:50.752Z,48.02
2019-02-27T08:47:50.739Z,46.67
2019-02-27T08:48:50.756Z,46.78
2019-02-27T08:49:50.692Z,46.37
2019-02-27T08:50:50.690Z,46.47
2019-02-27T08:51:50.702Z,45.95
2019-02-27T08:53:51.751Z,46.67
2019-02-27T08:54:50.632Z,46.47
2019-02-27T08:55:50.637Z,46.98
2019-02-27T08:56:50.623Z,47.40
2019-02-27T08:57:55.588Z,46.97
2019-02-27T08:58:51.631Z,46.45
2019-02-27T08:59:50.581Z,47.27
2019-02-27T09:00:51.841Z,47.40
2019-02-27T09:01:55.432Z,46.86
2019-02-27T09:02:51.548Z,47.19
2019-02-27T09:03:50.587Z,47.09
2019-02-27T09:04:50.543Z,47.06
2019-02-27T09:05:51.006Z,46.76
2019-02-27T09:06:50.506Z,46.45
2019-02-27T09:07:50.500Z,46.66
2019-02-27T09:08:50.481Z,47.06
2019-02-27T09:09:51.612Z,46.12
2019-02-27T09:10:50.459Z,46.43
2019-02-27T09:11:50.457Z,46.73
2019-02-27T09:12:51.829Z,47.25
2019-02-27T09:13:50.434Z,47.02
2019-02-27T09:14:50.464Z,47.25
2019-02-27T09:15:50.506Z,47.33
2019-02-27T09:16:50.493Z,47.74
2019-02-27T09:17:50.427Z,48.98
2019-02-27T09:18:50.381Z,47.97
2019-02-27T09:19:50.372Z,48.49
2019-02-27T09:20:53.123Z,47.45
2019-02-27T09:21:50.362Z,49.00
2019-02-27T09:22:50.375Z,49.41
2019-02-27T09:23:50.344Z,48.69
2019-02-27T09:24:50.314Z,48.49
2019-02-27T09:25:57.066Z,49.41
2019-02-27T09:26:51.316Z,49.21
2019-02-27T09:27:50.301Z,49.52
2019-02-27T09:28:50.303Z,50.03
2019-02-27T09:29:52.342Z,49.62
2019-02-27T09:30:50.261Z,49.41
2019-02-27T09:31:50.963Z,50.21
2019-02-27T09:32:50.239Z,50.54
2019-02-27T09:33:53.060Z,50.01
2019-02-27T09:34:50.233Z,49.90
2019-02-27T09:35:50.194Z,49.90
2019-02-27T09:36:50.202Z,50.32
2019-02-27T09:37:51.329Z,50.42
2019-02-27T09:38:50.154Z,50.42
2019-02-27T09:39:50.154Z,50.21
2019-02-27T09:40:50.154Z,50.42
2019-02-27T09:41:51.266Z,49.98
2019-02-27T09:42:52.740Z,50.19
2019-02-27T09:43:50.137Z,50.29
2019-02-27T09:44:50.125Z,49.26
2019-02-27T09:45:50.113Z,49.86
2019-02-27T09:46:52.427Z,50.06
2019-02-27T09:47:50.062Z,49.76
2019-02-27T09:48:50.102Z,50.06
2019-02-27T09:49:50.040Z,49.96
2019-02-27T09:50:50.052Z,49.55
2019-02-27T09:51:50.042Z,49.44
2019-02-27T09:52:50.003Z,50.27
2019-02-27T09:53:50.004Z,49.24
2019-02-27T09:54:50.016Z,48.32
2019-02-27T09:55:53.510Z,48.32
2019-02-27T09:56:49.989Z,48.83
2019-02-27T09:57:49.958Z,48.81
2019-02-27T09:58:49.942Z,48.29
2019-02-27T09:59:51.166Z,48.81
2019-02-27T10:00:49.961Z,48.60
2019-02-27T10:01:49.931Z,48.58
2019-02-27T10:02:49.903Z,48.60
2019-02-27T10:03:52.086Z,48.79
2019-02-27T10:04:49.900Z,47.24
2019-02-27T10:05:49.876Z,47.66
2019-02-27T10:06:49.890Z,48.68
2019-02-27T10:07:51.348Z,47.34
2019-02-27T10:08:49.847Z,46.94
2019-02-27T10:09:49.834Z,46.30
2019-02-27T10:10:49.850Z,46.89
2019-02-27T10:11:52.249Z,45.56
2019-02-27T10:12:49.825Z,46.58
2019-02-27T10:13:49.784Z,45.95
2019-02-27T10:14:50.272Z,45.25
2019-02-27T10:15:49.768Z,45.64
2019-02-27T10:16:49.802Z,45.23
2019-02-27T10:17:49.761Z,46.77
2019-02-27T10:18:49.726Z,45.74
2019-02-27T10:19:49.720Z,46.15
2019-02-27T10:20:49.739Z,46.15
2019-02-27T10:21:49.737Z,45.64
2019-02-27T10:22:49.711Z,45.95
2019-02-27T10:23:49.698Z,45.13
2019-02-27T10:24:49.660Z,45.21
2019-02-27T10:25:49.994Z,45.00
2019-02-27T10:26:49.645Z,44.49
2019-02-27T10:27:49.659Z,44.90
2019-02-27T10:28:49.637Z,44.37
2019-02-27T10:29:49.683Z,44.06
2019-02-27T10:30:49.920Z,44.47
2019-02-27T10:31:49.585Z,44.37
2019-02-27T10:32:49.592Z,43.85
2019-02-27T10:33:49.580Z,44.06
2019-02-27T10:34:51.022Z,43.44
2019-02-27T10:35:49.560Z,44.14
2019-02-27T10:36:49.550Z,43.63
2019-02-27T10:37:51.131Z,43.84
2019-02-27T10:38:49.532Z,44.12
2019-02-27T10:39:49.493Z,44.73
2019-02-27T10:40:49.539Z,44.14
2019-02-27T10:41:50.555Z,44.73
2019-02-27T10:42:50.412Z,43.91
2019-02-27T10:43:49.451Z,44.04
2019-02-27T10:44:49.471Z,43.82
2019-02-27T10:45:49.508Z,43.51
2019-02-27T10:46:49.414Z,43.30
2019-02-27T10:47:49.413Z,44.41
2019-02-27T10:48:49.425Z,44.71
2019-02-27T10:49:49.399Z,43.79
2019-02-27T10:50:49.389Z,44.23
2019-02-27T10:51:49.377Z,43.30
2019-02-27T10:52:50.128Z,43.20
2019-02-27T10:53:50.368Z,42.79
2019-02-27T10:54:49.342Z,43.10
2019-02-27T10:55:50.024Z,42.99
2019-02-27T10:56:49.355Z,42.46
2019-02-27T10:57:49.293Z,42.96
2019-02-27T10:58:49.289Z,42.44
2019-02-27T10:59:49.271Z,42.34
2019-02-27T11:00:49.337Z,42.75
2019-02-27T11:01:49.292Z,42.03
2019-02-27T11:02:52.275Z,41.42
2019-02-27T11:03:49.260Z,41.61
2019-02-27T11:04:50.039Z,41.09
2019-02-27T11:05:52.317Z,42.02
2019-02-27T11:06:50.279Z,41.61
2019-02-27T11:07:50.142Z,41.49
2019-02-27T11:08:49.187Z,41.18
2019-02-27T11:09:49.167Z,39.64
2019-02-27T11:10:49.152Z,40.24
2019-02-27T11:11:53.670Z,40.03
2019-02-27T11:12:49.146Z,39.83
2019-02-27T11:13:51.715Z,40.95
2019-02-27T11:14:50.241Z,40.44
2019-02-27T11:15:49.138Z,40.32
2019-02-27T11:16:49.099Z,40.94
2019-02-27T11:17:49.121Z,40.83
2019-02-27T11:18:49.080Z,41.33
2019-02-27T11:19:49.061Z,41.04
2019-02-27T11:20:49.100Z,39.92
2019-02-27T11:21:49.071Z,39.90
2019-02-27T11:22:49.066Z,39.69
2019-02-27T11:23:49.045Z,40.20
2019-02-27T11:24:49.516Z,39.69
2019-02-27T11:25:49.015Z,39.78
2019-02-27T11:26:48.977Z,39.26
2019-02-27T11:27:48.998Z,38.96
2019-02-27T11:28:48.958Z,38.35
2019-02-27T11:29:49.028Z,38.23
2019-02-27T11:30:50.959Z,38.43
2019-02-27T11:31:48.932Z,38.64
2019-02-27T11:32:48.936Z,37.92
2019-02-27T11:33:48.947Z,38.31
2019-02-27T11:34:49.219Z,37.60
2019-02-27T11:35:48.885Z,38.92
2019-02-27T11:36:48.871Z,38.62
2019-02-27T11:37:48.877Z,37.09
2019-02-27T11:38:48.878Z,37.40
2019-02-27T11:39:48.894Z,37.51
2019-02-27T11:40:48.846Z,37.01
2019-02-27T11:41:49.186Z,37.80
2019-02-27T11:42:48.813Z,37.70
2019-02-27T11:43:48.879Z,37.80
2019-02-27T11:44:49.607Z,38.19
2019-02-27T11:45:48.794Z,37.40
2019-02-27T11:46:58.407Z,37.38
2019-02-27T11:47:49.850Z,37.27
2019-02-27T11:48:48.757Z,36.44
2019-02-27T11:49:48.765Z,37.17
2019-02-27T11:50:48.816Z,36.34
2019-02-27T11:51:50.635Z,37.77
2019-02-27T11:52:49.288Z,37.05
2019-02-27T11:53:48.697Z,36.43
2019-02-27T11:54:48.714Z,36.53
2019-02-27T11:55:48.705Z,35.51
2019-02-27T11:56:51.490Z,35.92
2019-02-27T11:57:49.648Z,35.21
2019-02-27T11:58:48.653Z,35.39
2019-02-27T11:59:48.635Z,35.80
2019-02-27T12:00:48.628Z,33.97
2019-02-27T12:01:48.620Z,34.38
2019-02-27T12:02:48.648Z,34.88
2019-02-27T12:03:48.597Z,34.07
2019-02-27T12:04:48.569Z,32.83
2019-02-27T12:05:48.587Z,33.54
2019-02-27T12:06:48.569Z,32.93
2019-02-27T12:07:51.107Z,32.93
2019-02-27T12:08:48.576Z,32.71
2019-02-27T12:09:48.526Z,33.33
2019-02-27T12:10:48.564Z,33.53
2019-02-27T12:11:49.395Z,33.73
2019-02-27T12:12:48.548Z,33.63
2019-02-27T12:13:48.484Z,32.92
2019-02-27T12:14:48.486Z,32.80
2019-02-27T12:15:48.455Z,32.60
2019-02-27T12:16:48.623Z,32.59
2019-02-27T12:17:48.429Z,32.90
2019-02-27T12:18:48.454Z,33.01
2019-02-27T12:19:48.427Z,32.59
2019-02-27T12:20:52.901Z,33.29
2019-02-27T12:21:48.401Z,33.72
2019-02-27T12:22:48.382Z,32.90
2019-02-27T12:23:48.425Z,32.38
2019-02-27T12:24:50.323Z,31.57
2019-02-27T12:25:48.389Z,31.06
2019-02-27T12:26:48.345Z,32.28
2019-02-27T12:27:49.636Z,32.38
2019-02-27T12:28:52.413Z,31.26
2019-02-27T12:29:48.303Z,30.76
2019-02-27T12:30:48.320Z,32.28
2019-02-27T12:31:48.985Z,31.86
2019-02-27T12:32:48.316Z,32.68
2019-02-27T12:33:48.260Z,31.66
2019-02-27T12:34:48.255Z,30.54
2019-02-27T12:35:48.236Z,30.85
2019-02-27T12:36:49.970Z,30.64
2019-02-27T12:37:48.252Z,31.66
2019-02-27T12:38:48.211Z,32.37
2019-02-27T12:39:49.632Z,32.45
2019-02-27T12:40:48.203Z,32.86
2019-02-27T12:41:48.172Z,32.45
2019-02-27T12:42:49.770Z,32.15
2019-02-27T12:43:52.113Z,33.57
2019-02-27T12:44:48.146Z,31.42
2019-02-27T12:45:48.137Z,32.74
2019-02-27T12:46:48.149Z,31.83
2019-02-27T12:47:48.159Z,30.00
2019-02-27T12:48:48.126Z,30.00
2019-02-27T12:49:48.090Z,30.51
2019-02-27T12:50:48.075Z,30.10
2019-02-27T12:51:48.070Z,31.02
2019-02-27T12:52:48.248Z,30.62
2019-02-27T12:53:48.040Z,30.91